createdAt,value
2022-08-22T00:02:31.545Z,97799.13
2022-08-22T00:02:47.468Z,97807.38
2022-08-22T00:02:57.677Z,97808.53
2022-08-22T00:05:14.910Z,97794.28
2022-08-22T00:07:56.430Z,97797.75
2022-08-22T00:10:35.051Z,97794.25
2022-08-22T00:13:14.694Z,97799.28
2022-08-22T00:15:52.806Z,97801.16
2022-08-22T00:18:32.822Z,97799.56
2022-08-22T00:21:09.757Z,97797.91
2022-08-22T00:23:44.252Z,97794.44
2022-08-22T00:26:26.881Z,97799.00
2022-08-22T00:29:04.897Z,97793.06
2022-08-22T00:31:51.843Z,97803.00
2022-08-22T00:34:43.733Z,97801.88
2022-08-22T00:37:43.162Z,97795.97
2022-08-22T00:40:16.676Z,97799.16
2022-08-22T00:42:45.234Z,97802.09
2022-08-22T00:45:19.737Z,97804.53
2022-08-22T00:48:08.869Z,97793.72
2022-08-22T00:51:00.807Z,97802.28
2022-08-22T00:53:44.866Z,97803.88
2022-08-22T00:56:47.891Z,97802.50
2022-08-22T00:59:34.087Z,97799.28
2022-08-22T01:02:09.132Z,97799.28
2022-08-22T01:04:58.119Z,97801.13
2022-08-22T01:07:38.065Z,97801.13
2022-08-22T01:10:33.365Z,97796.34
2022-08-22T01:13:10.932Z,97802.25
2022-08-22T01:15:40.763Z,97800.63
2022-08-22T01:18:45.819Z,97813.00
2022-08-22T01:21:25.511Z,97814.31
2022-08-22T01:23:56.612Z,97804.16
2022-08-22T01:26:44.763Z,97810.56
2022-08-22T01:29:31.500Z,97812.94
2022-08-22T01:32:24.689Z,97814.25
2022-08-22T01:35:10.552Z,97816.38
2022-08-22T01:37:43.624Z,97817.50
2022-08-22T01:40:23.274Z,97814.50
2022-08-22T01:42:57.261Z,97814.22
2022-08-22T01:45:46.151Z,97811.22
2022-08-22T01:48:44.332Z,97817.63
2022-08-22T01:51:26.182Z,97806.91
2022-08-22T01:54:23.621Z,97809.03
2022-08-22T01:56:51.233Z,97810.66
2022-08-22T01:59:43.028Z,97807.97
2022-08-22T02:02:32.228Z,97816.91
2022-08-22T02:05:11.397Z,97812.84
2022-08-22T02:08:00.648Z,97823.28
2022-08-22T02:10:28.421Z,97827.50
2022-08-22T02:13:25.401Z,97824.00
2022-08-22T02:16:16.087Z,97821.59
2022-08-22T02:19:14.563Z,97830.94
2022-08-22T02:21:51.663Z,97829.22
2022-08-22T02:24:35.147Z,97827.34
2022-08-22T02:27:17.181Z,97830.88
2022-08-22T02:30:08.891Z,97837.56
2022-08-22T02:32:42.247Z,97827.09
2022-08-22T02:35:12.662Z,97836.75
2022-08-22T02:38:13.450Z,97832.47
2022-08-22T02:41:00.312Z,97831.09
2022-08-22T02:43:37.942Z,97824.91
2022-08-22T02:46:23.142Z,97822.75
2022-08-22T02:49:13.443Z,97826.47
2022-08-22T02:52:14.996Z,97826.72
2022-08-22T02:54:47.632Z,97818.63
2022-08-22T02:57:32.218Z,97817.25
2022-08-22T03:00:32.048Z,97816.44
2022-08-22T03:03:29.202Z,97811.34
2022-08-22T03:06:01.865Z,97817.81
2022-08-22T03:08:59.202Z,97809.50
2022-08-22T03:11:33.507Z,97806.03
2022-08-22T03:14:06.329Z,97807.66
2022-08-22T03:16:40.911Z,97814.88
2022-08-22T03:19:19.040Z,97810.56
2022-08-22T03:22:00.582Z,97813.75
2022-08-22T03:24:39.632Z,97806.28
2022-08-22T03:27:32.883Z,97802.53
2022-08-22T03:30:06.944Z,97799.66
2022-08-22T03:32:55.597Z,97807.69
2022-08-22T03:35:51.178Z,97803.72
2022-08-22T03:38:21.723Z,97802.41
2022-08-22T03:41:26.780Z,97809.13
2022-08-22T03:44:21.638Z,97817.97
2022-08-22T03:47:15.232Z,97803.28
2022-08-22T03:49:59.355Z,97810.81
2022-08-22T03:53:18.436Z,97821.22
2022-08-22T03:56:24.412Z,97816.09
2022-08-22T03:58:54.731Z,97812.06
2022-08-22T04:01:31.820Z,97816.38
2022-08-22T04:04:11.588Z,97810.75
2022-08-22T04:06:57.311Z,97817.75
2022-08-22T04:09:47.893Z,97820.94
2022-08-22T04:12:31.028Z,97813.69
2022-08-22T04:14:58.532Z,97811.53
2022-08-22T04:17:47.993Z,97813.44
2022-08-22T04:20:21.392Z,97813.19
2022-08-22T04:23:04.092Z,97816.38
2022-08-22T04:25:40.888Z,97817.69
2022-08-22T04:28:54.113Z,97817.41
2022-08-22T04:31:33.791Z,97820.09
2022-08-22T04:34:15.510Z,97825.78
2022-08-22T04:36:54.712Z,97822.84
2022-08-22T04:39:38.946Z,97820.72
2022-08-22T04:42:48.382Z,97826.63
2022-08-22T04:46:17.713Z,97819.97
2022-08-22T04:48:53.521Z,97822.94
2022-08-22T04:51:32.339Z,97821.41
2022-08-22T04:54:24.173Z,97827.63
2022-08-22T04:57:14.542Z,97824.72
2022-08-22T04:59:43.557Z,97823.97
2022-08-22T05:02:19.952Z,97832.06
2022-08-22T05:04:53.202Z,97834.81
2022-08-22T05:07:24.519Z,97832.72
2022-08-22T05:09:59.262Z,97839.75
2022-08-22T05:12:32.937Z,97840.84
2022-08-22T05:15:05.927Z,97842.00
2022-08-22T05:17:40.442Z,97842.31
2022-08-22T05:20:12.281Z,97840.19
2022-08-22T05:22:47.101Z,97841.00
2022-08-22T05:25:20.182Z,97841.00
2022-08-22T05:28:05.250Z,97842.59
2022-08-22T05:30:35.097Z,97851.00
2022-08-22T05:33:27.452Z,97849.41
2022-08-22T05:36:01.889Z,97852.94
2022-08-22T05:38:34.443Z,97859.69
2022-08-22T05:41:09.391Z,97856.78
2022-08-22T05:43:41.667Z,97858.16
2022-08-22T05:46:27.079Z,97860.56
2022-08-22T05:49:04.052Z,97862.44
2022-08-22T05:52:07.672Z,97861.41
2022-08-22T05:54:52.092Z,97861.97
2022-08-22T05:58:01.282Z,97858.00
2022-08-22T06:00:37.342Z,97870.94
2022-08-22T06:03:20.122Z,97869.38
2022-08-22T06:05:52.382Z,97868.34
2022-08-22T06:08:27.612Z,97871.84
2022-08-22T06:10:57.872Z,97871.13
2022-08-22T06:13:41.390Z,97870.59
2022-08-22T06:16:17.323Z,97866.63
2022-08-22T06:18:46.402Z,97869.34
2022-08-22T06:21:22.591Z,97871.03
2022-08-22T06:23:56.817Z,97873.25
2022-08-22T06:26:32.011Z,97867.88
2022-08-22T06:29:01.358Z,97864.66
2022-08-22T06:31:28.801Z,97868.72
2022-08-22T06:34:15.722Z,97870.94
2022-08-22T06:36:49.540Z,97871.22
2022-08-22T06:39:24.522Z,97874.19
2022-08-22T06:41:59.763Z,97872.59
2022-08-22T06:44:39.714Z,97873.13
2022-08-22T06:47:15.112Z,97872.06
2022-08-22T06:49:45.834Z,97871.28
2022-08-22T06:52:21.828Z,97871.84
2022-08-22T06:54:57.612Z,97877.22
2022-08-22T06:57:36.251Z,97874.81
2022-08-22T07:00:15.464Z,97881.25
2022-08-22T07:02:46.890Z,97883.69
2022-08-22T07:05:20.311Z,97879.94
2022-08-22T07:07:49.371Z,97873.47
2022-08-22T07:10:18.462Z,97879.38
2022-08-22T07:12:52.392Z,97876.16
2022-08-22T07:15:23.024Z,97875.06
2022-08-22T07:17:54.935Z,97876.44
2022-08-22T07:20:27.028Z,97880.75
2022-08-22T07:22:57.842Z,97883.16
2022-08-22T07:25:26.252Z,97878.31
2022-08-22T07:28:05.606Z,97892.53
2022-08-22T07:31:03.898Z,97880.97
2022-08-22T07:33:44.403Z,97882.78
2022-08-22T07:36:36.034Z,97881.41
2022-08-22T07:39:25.802Z,97884.34
2022-08-22T07:42:04.691Z,97885.19
2022-08-22T07:44:45.378Z,97885.44
2022-08-22T07:47:26.625Z,97887.53
2022-08-22T07:49:59.142Z,97884.19
2022-08-22T07:52:41.442Z,97884.41
2022-08-22T07:55:24.238Z,97880.63
2022-08-22T07:57:56.634Z,97884.16
2022-08-22T08:00:25.029Z,97891.03
2022-08-22T08:02:59.057Z,97885.84
2022-08-22T08:05:30.303Z,97885.63
2022-08-22T08:08:07.452Z,97883.09
2022-08-22T08:10:39.791Z,97886.34
2022-08-22T08:13:14.378Z,97884.16
2022-08-22T08:15:45.508Z,97888.69
2022-08-22T08:18:23.540Z,97892.50
2022-08-22T08:20:54.912Z,97891.31
2022-08-22T08:23:25.212Z,97891.22
2022-08-22T08:26:03.642Z,97889.22
2022-08-22T08:28:34.960Z,97889.72
2022-08-22T08:31:07.808Z,97894.19
2022-08-22T08:33:40.668Z,97888.78
2022-08-22T08:36:23.772Z,97891.59
2022-08-22T08:39:16.388Z,97897.72
2022-08-22T08:42:17.908Z,97889.81
2022-08-22T08:45:07.062Z,97892.75
2022-08-22T08:47:55.675Z,97894.31
2022-08-22T08:50:33.522Z,97888.47
2022-08-22T08:53:16.799Z,97890.59
2022-08-22T08:55:51.332Z,97891.03
2022-08-22T08:58:45.087Z,97884.03
2022-08-22T09:02:03.401Z,97881.34
2022-08-22T09:04:30.910Z,97879.16
2022-08-22T09:07:39.937Z,97880.22
2022-08-22T09:10:32.144Z,97885.69
2022-08-22T09:13:40.904Z,97886.88
2022-08-22T09:16:24.782Z,97896.38
2022-08-22T09:19:23.472Z,97894.84
2022-08-22T09:22:27.592Z,97878.47
2022-08-22T09:25:38.375Z,97887.53
2022-08-22T09:28:22.570Z,97905.09
2022-08-22T09:34:29.523Z,97895.84
2022-08-22T09:37:13.855Z,97897.22
2022-08-22T09:40:05.977Z,97900.56
2022-08-22T09:42:55.392Z,97895.56
2022-08-22T09:45:45.585Z,97897.44
2022-08-22T09:48:43.696Z,97902.91
2022-08-22T09:51:31.832Z,97896.25
2022-08-22T09:54:34.368Z,97898.03
2022-08-22T09:57:43.281Z,97895.13
2022-08-22T10:00:30.621Z,97901.09
2022-08-22T10:03:48.061Z,97906.22
2022-08-22T10:06:22.931Z,97897.88
2022-08-22T10:09:08.976Z,97900.41
2022-08-22T10:11:42.300Z,97906.44
2022-08-22T10:14:56.251Z,97910.06
2022-08-22T10:18:10.377Z,97911.78
2022-08-22T10:21:09.530Z,97905.03
2022-08-22T10:23:51.842Z,97910.03
2022-08-22T10:26:38.538Z,97914.06
2022-08-22T10:29:09.347Z,97914.59
2022-08-22T10:31:59.480Z,97921.06
2022-08-22T10:34:36.940Z,97911.72
2022-08-22T10:37:26.830Z,97909.44
2022-08-22T10:39:57.111Z,97916.84
2022-08-22T10:42:34.957Z,97919.66
2022-08-22T10:45:15.528Z,97921.72
2022-08-22T10:47:54.687Z,97916.63
2022-08-22T10:50:55.042Z,97918.59
2022-08-22T10:53:36.043Z,97918.28
2022-08-22T10:56:27.356Z,97924.41
2022-08-22T10:59:30.200Z,97908.06
2022-08-22T11:02:30.659Z,97926.19
2022-08-22T11:05:35.291Z,97912.91
2022-08-22T11:08:24.674Z,97918.63
2022-08-22T11:11:01.764Z,97925.69
2022-08-22T11:14:07.942Z,97917.59
2022-08-22T11:16:56.540Z,97927.84
2022-08-22T11:19:36.022Z,97923.06
2022-08-22T11:22:35.791Z,97929.97
2022-08-22T11:25:36.165Z,97930.13
2022-08-22T11:28:19.939Z,97922.72
2022-08-22T11:31:31.734Z,97937.13
2022-08-22T11:34:15.759Z,97935.25
2022-08-22T11:36:53.328Z,97934.16
2022-08-22T11:39:42.775Z,97932.72
2022-08-22T11:42:31.225Z,97934.41
2022-08-22T11:45:05.091Z,97932.00
2022-08-22T11:47:36.390Z,97935.34
2022-08-22T11:50:33.462Z,97939.88
2022-08-22T11:53:32.950Z,97939.63
2022-08-22T11:56:12.518Z,97921.75
2022-08-22T11:58:58.800Z,97926.22
2022-08-22T12:01:42.146Z,97925.13
2022-08-22T12:04:19.331Z,97924.56
2022-08-22T12:07:09.152Z,97925.34
2022-08-22T12:09:59.868Z,97933.47
2022-08-22T12:12:55.467Z,97932.84
2022-08-22T12:15:29.713Z,97922.50
2022-08-22T12:18:36.123Z,97929.75
2022-08-22T12:21:41.282Z,97930.13
2022-08-22T12:24:19.031Z,97927.66
2022-08-22T12:26:57.185Z,97919.03
2022-08-22T12:29:40.077Z,97920.72
2022-08-22T12:32:35.138Z,97921.25
2022-08-22T12:35:36.947Z,97917.78
2022-08-22T12:38:37.335Z,97925.09
2022-08-22T12:41:34.960Z,97913.75
2022-08-22T12:44:24.842Z,97905.03
2022-08-22T12:46:56.124Z,97903.03
2022-08-22T12:49:56.636Z,97905.38
2022-08-22T12:52:34.456Z,97900.69
2022-08-22T12:55:24.853Z,97891.81
2022-08-22T12:58:02.961Z,97893.22
2022-08-22T13:00:41.616Z,97898.59
2022-08-22T13:03:22.261Z,97904.75
2022-08-22T13:05:56.265Z,97900.06
2022-08-22T13:08:27.568Z,97895.59
2022-08-22T13:11:01.602Z,97897.50
2022-08-22T13:13:38.644Z,97894.63
2022-08-22T13:16:13.208Z,97908.13
2022-08-22T13:18:53.917Z,97894.06
2022-08-22T13:21:36.180Z,97891.69
2022-08-22T13:24:10.335Z,97899.47
2022-08-22T13:26:50.455Z,97905.41
2022-08-22T13:29:27.492Z,97896.13
2022-08-22T13:32:09.604Z,97901.19
2022-08-22T13:34:44.062Z,97898.63
2022-08-22T13:37:24.856Z,97903.09
2022-08-22T13:39:59.798Z,97895.84
2022-08-22T13:42:30.212Z,97889.66
2022-08-22T13:45:02.995Z,97893.25
2022-08-22T13:47:39.726Z,97891.31
2022-08-22T13:50:19.752Z,97891.38
2022-08-22T13:52:58.268Z,97888.41
2022-08-22T13:55:34.504Z,97893.25
2022-08-22T13:58:36.018Z,97879.69
2022-08-22T14:01:25.212Z,97881.28
2022-08-22T14:04:28.318Z,97886.69
2022-08-22T14:07:02.149Z,97873.81
2022-08-22T14:09:35.452Z,97879.34
2022-08-22T14:12:22.174Z,97879.91
2022-08-22T14:14:57.571Z,97881.75
2022-08-22T14:17:42.948Z,97879.78
2022-08-22T14:20:32.462Z,97881.03
2022-08-22T14:23:27.055Z,97878.00
2022-08-22T14:25:57.285Z,97880.81
2022-08-22T14:28:29.823Z,97873.81
2022-08-22T14:31:07.571Z,97874.41
2022-08-22T14:33:52.928Z,97873.09
2022-08-22T14:36:45.031Z,97876.31
2022-08-22T14:39:43.698Z,97871.31
2022-08-22T14:42:25.351Z,97868.69
2022-08-22T14:45:08.715Z,97871.41
2022-08-22T14:47:55.553Z,97871.50
2022-08-22T14:50:36.366Z,97882.69
2022-08-22T14:53:09.041Z,97873.88
2022-08-22T14:55:41.131Z,97873.69
2022-08-22T14:58:18.981Z,97872.16
2022-08-22T15:00:57.790Z,97875.66
2022-08-22T15:03:32.511Z,97874.06
2022-08-22T15:06:05.212Z,97876.47
2022-08-22T15:08:46.472Z,97879.69
2022-08-22T15:11:22.872Z,97873.53
2022-08-22T15:14:03.129Z,97869.50
2022-08-22T15:16:51.641Z,97887.91
2022-08-22T15:19:33.618Z,97867.41
2022-08-22T15:22:27.501Z,97870.41
2022-08-22T15:25:12.388Z,97884.72
2022-08-22T15:27:50.198Z,97874.44
2022-08-22T15:30:20.594Z,97870.38
2022-08-22T15:32:49.371Z,97870.88
2022-08-22T15:35:29.946Z,97876.47
2022-08-22T15:38:08.269Z,97869.13
2022-08-22T15:40:43.448Z,97877.03
2022-08-22T15:43:24.246Z,97874.41
2022-08-22T15:46:17.884Z,97867.91
2022-08-22T15:48:59.699Z,97865.78
2022-08-22T15:51:42.940Z,97858.22
2022-08-22T15:54:24.717Z,97860.44
2022-08-22T15:56:53.060Z,97854.72
2022-08-22T15:59:31.338Z,97858.22
2022-08-22T16:02:21.716Z,97852.56
2022-08-22T16:05:10.699Z,97852.56
2022-08-22T16:07:59.185Z,97854.41
2022-08-22T16:10:26.701Z,97850.41
2022-08-22T16:13:26.280Z,97854.41
2022-08-22T16:16:18.675Z,97858.56
2022-08-22T16:18:49.111Z,97852.91
2022-08-22T16:21:22.759Z,97852.41
2022-08-22T16:23:50.198Z,97856.69
2022-08-22T16:26:19.828Z,97860.22
2022-08-22T16:29:14.781Z,97855.94
2022-08-22T16:31:48.543Z,97852.19
2022-08-22T16:34:16.400Z,97858.66
2022-08-22T16:37:11.249Z,97859.81
2022-08-22T16:39:46.401Z,97862.25
2022-08-22T16:42:23.080Z,97865.75
2022-08-22T16:45:02.758Z,97867.09
2022-08-22T16:47:33.049Z,97869.31
2022-08-22T16:50:15.840Z,97867.94
2022-08-22T16:53:03.734Z,97873.88
2022-08-22T16:55:31.598Z,97876.03
2022-08-22T16:58:07.168Z,97877.94
2022-08-22T17:00:37.838Z,97874.97
2022-08-22T17:03:06.129Z,97874.97
2022-08-22T17:06:07.760Z,97879.06
2022-08-22T17:09:03.116Z,97877.44
2022-08-22T17:12:03.289Z,97883.09
2022-08-22T17:14:33.596Z,97889.84
2022-08-22T17:17:29.276Z,97890.13
2022-08-22T17:20:21.489Z,97897.16
2022-08-22T17:23:00.165Z,97895.00
2022-08-22T17:25:34.959Z,97895.53
2022-08-22T17:28:12.089Z,97898.50
2022-08-22T17:31:05.650Z,97900.41
2022-08-22T17:33:52.244Z,97904.72
2022-08-22T17:36:57.250Z,97896.91
2022-08-22T17:39:55.827Z,97906.06
2022-08-22T17:42:38.591Z,97905.53
2022-08-22T17:45:29.337Z,97901.50
2022-08-22T17:48:08.099Z,97909.56
2022-08-22T17:50:46.908Z,97909.84
2022-08-22T17:53:37.805Z,97914.41
2022-08-22T17:56:19.039Z,97910.38
2022-08-22T17:59:05.089Z,97913.34
2022-08-22T18:01:35.889Z,97926.00
2022-08-22T18:04:09.520Z,97920.34
2022-08-22T18:06:47.959Z,97926.28
2022-08-22T18:09:40.208Z,97925.19
2022-08-22T18:12:33.663Z,97929.50
2022-08-22T18:15:20.140Z,97933.78
2022-08-22T18:17:56.889Z,97931.34
2022-08-22T18:20:37.875Z,97933.50
2022-08-22T18:23:15.315Z,97937.25
2022-08-22T18:26:15.609Z,97934.28
2022-08-22T18:29:00.919Z,97936.41
2022-08-22T18:31:38.452Z,97936.41
2022-08-22T18:34:31.620Z,97930.16
2022-08-22T18:37:34.860Z,97927.75
2022-08-22T18:40:11.376Z,97939.56
2022-08-22T18:43:18.129Z,97943.59
2022-08-22T18:45:48.680Z,97942.25
2022-08-22T18:48:28.270Z,97944.13
2022-08-22T18:51:25.332Z,97939.03
2022-08-22T18:54:05.268Z,97936.09
2022-08-22T18:56:48.751Z,97937.69
2022-08-22T18:59:29.120Z,97934.47
2022-08-22T19:02:22.681Z,97943.31
2022-08-22T19:05:02.955Z,97944.91
2022-08-22T19:07:43.106Z,97946.19
2022-08-22T19:10:38.437Z,97944.03
2022-08-22T19:13:25.146Z,97941.88
2022-08-22T19:16:20.870Z,97942.09
2022-08-22T19:19:53.520Z,97952.88
2022-08-22T19:22:35.982Z,97951.53
2022-08-22T19:25:03.454Z,97955.59
2022-08-22T19:27:34.040Z,97945.88
2022-08-22T19:30:07.066Z,97942.34
2022-08-22T19:32:46.681Z,97934.28
2022-08-22T19:35:29.500Z,97934.00
2022-08-22T19:37:59.821Z,97941.50
2022-08-22T19:40:45.782Z,97931.28
2022-08-22T19:43:31.786Z,97940.13
2022-08-22T19:46:04.101Z,97942.91
2022-08-22T19:48:50.441Z,97949.09
2022-08-22T19:51:21.030Z,97946.59
2022-08-22T19:54:20.483Z,97951.63
2022-08-22T19:56:51.070Z,97953.19
2022-08-22T20:00:00.151Z,97958.03
2022-08-22T20:02:37.897Z,97951.84
2022-08-22T20:05:32.019Z,97950.72
2022-08-22T20:08:32.641Z,97952.91
2022-08-22T20:11:15.120Z,97949.16
2022-08-22T20:13:44.058Z,97941.88
2022-08-22T20:16:16.202Z,97941.88
2022-08-22T20:19:06.131Z,97948.56
2022-08-22T20:21:58.100Z,97951.75
2022-08-22T20:24:28.477Z,97943.69
2022-08-22T20:27:13.242Z,97947.19
2022-08-22T20:29:51.513Z,97944.78
2022-08-22T20:32:22.020Z,97938.31
2022-08-22T20:34:55.135Z,97938.59
2022-08-22T20:38:05.268Z,97940.16
2022-08-22T20:40:56.196Z,97943.69
2022-08-22T20:43:36.928Z,97929.41
2022-08-22T20:46:33.271Z,97930.16
2022-08-22T20:49:01.820Z,97935.81
2022-08-22T20:51:32.174Z,97933.38
2022-08-22T20:54:10.455Z,97930.94
2022-08-22T20:56:53.683Z,97930.94
2022-08-22T20:59:28.030Z,97929.31
2022-08-22T21:02:10.897Z,97926.63
2022-08-22T21:04:49.050Z,97930.16
2022-08-22T21:07:27.042Z,97929.31
2022-08-22T21:10:20.299Z,97924.78
2022-08-22T21:13:01.229Z,97923.41
2022-08-22T21:15:47.351Z,97938.16
2022-08-22T21:18:34.480Z,97923.91
2022-08-22T21:21:12.752Z,97926.09
2022-08-22T21:23:51.961Z,97922.84
2022-08-22T21:26:24.770Z,97913.16
2022-08-22T21:29:03.040Z,97917.97
2022-08-22T21:31:36.949Z,97912.88
2022-08-22T21:34:05.858Z,97917.09
2022-08-22T21:36:38.112Z,97910.38
2022-08-22T21:39:15.109Z,97915.22
2022-08-22T21:41:48.811Z,97907.16
2022-08-22T21:44:31.307Z,97915.22
2022-08-22T21:47:31.391Z,97910.38
2022-08-22T21:50:08.273Z,97913.59
2022-08-22T21:52:39.027Z,97913.06
2022-08-22T21:55:34.802Z,97909.28
2022-08-22T21:58:35.133Z,97916.78
2022-08-22T22:01:25.003Z,97916.78
2022-08-22T22:03:55.970Z,97916.50
2022-08-22T22:06:23.411Z,97914.38
2022-08-22T22:08:51.130Z,97912.72
2022-08-22T22:11:18.950Z,97913.84
2022-08-22T22:13:46.789Z,97917.41
2022-08-22T22:16:20.391Z,97913.91
2022-08-22T22:18:48.016Z,97907.97
2022-08-22T22:21:15.450Z,97913.59
2022-08-22T22:23:43.009Z,97914.41
2022-08-22T22:26:10.830Z,97913.06
2022-08-22T22:28:41.926Z,97910.88
2022-08-22T22:31:10.002Z,97912.44
2022-08-22T22:33:39.659Z,97907.63
2022-08-22T22:36:16.169Z,97903.88
2022-08-22T22:38:44.453Z,97899.06
2022-08-22T22:41:12.360Z,97896.09
2022-08-22T22:43:40.000Z,97903.88
2022-08-22T22:46:07.559Z,97904.44
2022-08-22T22:48:35.190Z,97899.06
2022-08-22T22:51:10.320Z,97898.50
2022-08-22T22:53:40.512Z,97892.59
2022-08-22T22:56:21.477Z,97897.97
2022-08-22T22:58:59.289Z,97894.78
2022-08-22T23:01:31.218Z,97897.69
2022-08-22T23:04:05.436Z,97897.44
2022-08-22T23:06:34.787Z,97894.19
2022-08-22T23:09:02.276Z,97894.19
2022-08-22T23:15:18.069Z,97897.44
2022-08-22T23:17:45.740Z,97893.19
2022-08-22T23:20:13.962Z,97885.69
2022-08-22T23:22:43.131Z,97883.75
2022-08-22T23:25:10.781Z,97894.03
2022-08-22T23:27:38.573Z,97883.06
2022-08-22T23:30:11.248Z,97881.97
2022-08-22T23:32:38.952Z,97885.50
2022-08-22T23:35:07.401Z,97884.72
2022-08-22T23:37:34.981Z,97886.31
2022-08-22T23:40:03.586Z,97884.19
2022-08-22T23:42:31.350Z,97885.00
2022-08-22T23:44:58.880Z,97882.59
2022-08-22T23:47:26.491Z,97876.31
2022-08-22T23:49:54.001Z,97876.03
2022-08-22T23:52:21.577Z,97878.94
2022-08-22T23:54:51.593Z,97879.75
2022-08-22T23:57:26.391Z,97881.06
2022-08-22T23:59:57.991Z,97879.69
